createdAt,value
2023-01-10T00:00:51.927Z,974.59
2023-01-10T00:01:51.914Z,974.55
2023-01-10T00:02:52.012Z,974.69
2023-01-10T00:03:51.883Z,974.62
2023-01-10T00:04:51.911Z,974.65
2023-01-10T00:05:51.864Z,974.78
2023-01-10T00:06:51.847Z,974.80
2023-01-10T00:07:51.835Z,974.76
2023-01-10T00:08:51.823Z,974.83
2023-01-10T00:09:51.815Z,974.80
2023-01-10T00:10:51.803Z,974.90
2023-01-10T00:11:51.781Z,974.86
2023-01-10T00:12:51.771Z,974.91
2023-01-10T00:13:51.757Z,974.88
2023-01-10T00:14:51.767Z,974.89
2023-01-10T00:15:51.779Z,974.88
2023-01-10T00:16:51.725Z,974.81
2023-01-10T00:17:51.700Z,974.81
2023-01-10T00:18:51.691Z,974.82
2023-01-10T00:19:51.677Z,974.80
2023-01-10T00:20:51.690Z,974.84
2023-01-10T00:21:51.652Z,974.81
2023-01-10T00:22:51.643Z,974.79
2023-01-10T00:23:51.624Z,974.82
2023-01-10T00:24:51.604Z,974.83
2023-01-10T00:25:51.599Z,974.93
2023-01-10T00:26:51.669Z,974.85
2023-01-10T00:27:51.623Z,974.89
2023-01-10T00:28:51.553Z,974.87
2023-01-10T00:29:51.542Z,974.92
2023-01-10T00:30:51.620Z,974.95
2023-01-10T00:31:51.642Z,975.03
2023-01-10T00:32:51.548Z,974.98
2023-01-10T00:33:51.542Z,974.97
2023-01-10T00:34:51.485Z,975.07
2023-01-10T00:35:51.465Z,975.06
2023-01-10T00:36:51.452Z,975.16
2023-01-10T00:37:51.446Z,975.16
2023-01-10T00:38:51.423Z,975.27
2023-01-10T00:39:51.411Z,975.29
2023-01-10T00:40:51.398Z,975.27
2023-01-10T00:41:51.379Z,975.32
2023-01-10T00:42:51.370Z,975.27
2023-01-10T00:43:51.354Z,975.31
2023-01-10T00:44:51.337Z,975.30
2023-01-10T00:45:51.374Z,975.30
2023-01-10T00:46:51.341Z,975.40
2023-01-10T00:47:51.304Z,975.41
2023-01-10T00:48:51.290Z,975.41
2023-01-10T00:49:51.283Z,975.36
2023-01-10T00:50:51.267Z,975.40
2023-01-10T00:51:51.255Z,975.41
2023-01-10T00:52:51.246Z,975.42
2023-01-10T00:53:51.225Z,975.37
2023-01-10T00:54:51.216Z,975.41
2023-01-10T00:55:51.200Z,975.46
2023-01-10T00:56:51.190Z,975.43
2023-01-10T00:57:51.165Z,975.42
2023-01-10T00:58:51.154Z,975.51
2023-01-10T00:59:51.137Z,975.54
2023-01-10T01:00:51.178Z,975.51
2023-01-10T01:01:51.281Z,975.52
2023-01-10T01:02:51.297Z,975.56
2023-01-10T01:03:51.094Z,975.57
2023-01-10T01:04:51.085Z,975.62
2023-01-10T01:05:51.073Z,975.65
2023-01-10T01:06:51.060Z,975.59
2023-01-10T01:07:51.027Z,975.62
2023-01-10T01:08:51.041Z,975.66
2023-01-10T01:09:51.002Z,975.64
2023-01-10T01:10:50.995Z,975.70
2023-01-10T01:11:50.984Z,975.74
2023-01-10T01:12:50.967Z,975.78
2023-01-10T01:13:50.958Z,975.78
2023-01-10T01:14:50.947Z,975.85
2023-01-10T01:15:50.974Z,975.89
2023-01-10T01:16:50.926Z,975.81
2023-01-10T01:17:50.905Z,975.87
2023-01-10T01:18:50.925Z,975.89
2023-01-10T01:19:50.881Z,975.98
2023-01-10T01:20:50.870Z,975.95
2023-01-10T01:21:50.849Z,975.92
2023-01-10T01:22:50.840Z,976.01
2023-01-10T01:23:50.829Z,976.05
2023-01-10T01:24:50.810Z,976.01
2023-01-10T01:25:50.798Z,976.12
2023-01-10T01:26:50.782Z,976.13
2023-01-10T01:27:50.767Z,976.19
2023-01-10T01:28:50.755Z,976.24
2023-01-10T01:29:50.750Z,976.18
2023-01-10T01:30:50.806Z,976.20
2023-01-10T01:31:50.721Z,976.31
2023-01-10T01:32:50.706Z,976.32
2023-01-10T01:33:50.691Z,976.33
2023-01-10T01:34:50.697Z,976.31
2023-01-10T01:35:50.665Z,976.37
2023-01-10T01:36:50.649Z,976.34
2023-01-10T01:37:50.639Z,976.38
2023-01-10T01:38:50.628Z,976.45
2023-01-10T01:39:50.611Z,976.46
2023-01-10T01:40:50.603Z,976.47
2023-01-10T01:41:50.600Z,976.46
2023-01-10T01:42:50.574Z,976.55
2023-01-10T01:43:50.558Z,976.59
2023-01-10T01:44:50.750Z,976.56
2023-01-10T01:45:50.535Z,976.55
2023-01-10T01:46:50.525Z,976.55
2023-01-10T01:47:50.505Z,976.68
2023-01-10T01:48:50.486Z,976.71
2023-01-10T01:49:50.472Z,976.58
2023-01-10T01:50:50.485Z,976.65
2023-01-10T01:51:50.458Z,976.74
2023-01-10T01:52:50.438Z,976.68
2023-01-10T01:53:50.444Z,976.68
2023-01-10T01:54:50.415Z,976.71
2023-01-10T01:55:50.417Z,976.75
2023-01-10T01:56:50.396Z,976.77
2023-01-10T01:57:50.376Z,976.76
2023-01-10T01:58:50.368Z,976.85
2023-01-10T01:59:50.347Z,976.77
2023-01-10T02:00:50.493Z,976.79
2023-01-10T02:01:50.406Z,976.81
2023-01-10T02:03:01.815Z,976.83
2023-01-10T02:03:51.382Z,976.86
2023-01-10T02:04:50.285Z,976.86
2023-01-10T02:05:50.274Z,976.90
2023-01-10T02:06:50.293Z,976.97
2023-01-10T02:07:50.241Z,977.00
2023-01-10T02:08:50.227Z,977.03
2023-01-10T02:09:50.207Z,977.07
2023-01-10T02:10:50.195Z,977.13
2023-01-10T02:11:50.181Z,977.15
2023-01-10T02:12:50.169Z,977.11
2023-01-10T02:13:50.166Z,977.13
2023-01-10T02:14:50.140Z,977.07
2023-01-10T02:15:50.185Z,977.12
2023-01-10T02:16:50.122Z,977.09
2023-01-10T02:17:50.117Z,977.12
2023-01-10T02:18:50.098Z,977.07
2023-01-10T02:19:50.078Z,977.09
2023-01-10T02:20:50.065Z,977.16
2023-01-10T02:21:50.052Z,977.24
2023-01-10T02:22:50.079Z,977.20
2023-01-10T02:23:50.031Z,977.29
2023-01-10T02:24:50.026Z,977.27
2023-01-10T02:25:50.000Z,977.27
2023-01-10T02:26:49.990Z,977.27
2023-01-10T02:27:49.972Z,977.31
2023-01-10T02:28:49.956Z,977.32
2023-01-10T02:29:49.961Z,977.31
2023-01-10T02:30:49.938Z,977.31
2023-01-10T02:31:49.917Z,977.37
2023-01-10T02:33:00.573Z,977.35
2023-01-10T02:33:50.940Z,977.41
2023-01-10T02:34:49.881Z,977.42
2023-01-10T02:35:49.868Z,977.41
2023-01-10T02:36:49.858Z,977.43
2023-01-10T02:37:49.836Z,977.50
2023-01-10T02:38:49.841Z,977.51
2023-01-10T02:39:49.811Z,977.48
2023-01-10T02:40:49.798Z,977.62
2023-01-10T02:41:49.801Z,977.59
2023-01-10T02:42:49.789Z,977.56
2023-01-10T02:43:49.775Z,977.63
2023-01-10T02:44:49.758Z,977.69
2023-01-10T02:45:49.741Z,977.67
2023-01-10T02:46:49.829Z,977.74
2023-01-10T02:47:49.709Z,977.69
2023-01-10T02:48:49.699Z,977.72
2023-01-10T02:49:49.686Z,977.75
2023-01-10T02:50:49.667Z,977.73
2023-01-10T02:51:49.692Z,977.74
2023-01-10T02:52:49.642Z,977.73
2023-01-10T02:53:49.624Z,977.70
2023-01-10T02:54:49.632Z,977.75
2023-01-10T02:55:49.598Z,977.72
2023-01-10T02:56:49.619Z,977.74
2023-01-10T02:57:49.575Z,977.79
2023-01-10T02:58:49.565Z,977.82
2023-01-10T02:59:49.553Z,977.81
2023-01-10T03:00:49.531Z,977.85
2023-01-10T03:01:49.618Z,977.82
2023-01-10T03:02:49.515Z,977.86
2023-01-10T03:03:49.500Z,977.85
2023-01-10T03:04:49.558Z,977.89
2023-01-10T03:05:49.469Z,977.99
2023-01-10T03:06:49.456Z,977.92
2023-01-10T03:07:49.452Z,977.95
2023-01-10T03:08:49.438Z,978.07
2023-01-10T03:09:49.431Z,977.97
2023-01-10T03:10:49.430Z,978.07
2023-01-10T03:11:49.397Z,978.09
2023-01-10T03:12:49.378Z,978.09
2023-01-10T03:13:49.363Z,978.11
2023-01-10T03:14:49.353Z,978.17
2023-01-10T03:15:49.396Z,978.15
2023-01-10T03:16:49.324Z,978.10
2023-01-10T03:17:49.313Z,978.13
2023-01-10T03:18:49.302Z,978.16
2023-01-10T03:19:49.296Z,978.21
2023-01-10T03:20:49.271Z,978.25
2023-01-10T03:21:49.260Z,978.25
2023-01-10T03:22:49.245Z,978.29
2023-01-10T03:23:49.232Z,978.27
2023-01-10T03:24:49.221Z,978.42
2023-01-10T03:25:49.209Z,978.46
2023-01-10T03:26:49.220Z,978.49
2023-01-10T03:27:49.181Z,978.46
2023-01-10T03:28:49.171Z,978.51
2023-01-10T03:29:49.151Z,978.56
2023-01-10T03:30:49.130Z,978.64
2023-01-10T03:32:14.664Z,978.67
2023-01-10T03:33:14.648Z,978.69
2023-01-10T03:34:14.635Z,978.68
2023-01-10T03:35:14.618Z,978.71
2023-01-10T03:36:14.606Z,978.78
2023-01-10T03:37:14.608Z,978.75
2023-01-10T03:38:14.589Z,978.86
2023-01-10T03:39:14.557Z,978.84
2023-01-10T03:40:14.548Z,978.80
2023-01-10T03:41:14.538Z,978.84
2023-01-10T03:42:14.552Z,978.76
2023-01-10T03:43:14.508Z,978.86
2023-01-10T03:44:14.498Z,978.83
2023-01-10T03:45:14.486Z,978.93
2023-01-10T03:46:14.488Z,978.85
2023-01-10T03:47:14.463Z,978.88
2023-01-10T03:48:14.442Z,978.92
2023-01-10T03:49:14.424Z,978.94
2023-01-10T03:50:14.416Z,978.99
2023-01-10T03:51:14.404Z,978.93
2023-01-10T03:52:14.397Z,978.98
2023-01-10T03:53:14.386Z,979.05
2023-01-10T03:54:14.364Z,979.10
2023-01-10T03:55:14.351Z,979.11
2023-01-10T03:56:14.339Z,979.08
2023-01-10T03:57:14.329Z,979.20
2023-01-10T03:58:14.339Z,979.21
2023-01-10T03:59:14.303Z,979.23
2023-01-10T04:00:14.297Z,979.18
2023-01-10T04:01:14.391Z,979.22
2023-01-10T04:02:14.253Z,979.32
2023-01-10T04:03:14.243Z,979.35
2023-01-10T04:04:14.313Z,979.29
2023-01-10T04:05:14.218Z,979.35
2023-01-10T04:06:14.217Z,979.32
2023-01-10T04:07:14.200Z,979.32
2023-01-10T04:08:14.181Z,979.32
2023-01-10T04:09:14.219Z,979.36
2023-01-10T04:10:14.161Z,979.39
2023-01-10T04:11:14.134Z,979.41
2023-01-10T04:12:14.133Z,979.49
2023-01-10T04:13:14.114Z,979.50
2023-01-10T04:14:14.130Z,979.53
2023-01-10T04:15:14.087Z,979.57
2023-01-10T04:16:14.122Z,979.55
2023-01-10T04:17:14.053Z,979.54
2023-01-10T04:18:14.047Z,979.60
2023-01-10T04:19:14.027Z,979.58
2023-01-10T04:20:14.016Z,979.63
2023-01-10T04:21:14.015Z,979.57
2023-01-10T04:22:13.988Z,979.65
2023-01-10T04:23:13.981Z,979.68
2023-01-10T04:24:13.967Z,979.69
2023-01-10T04:25:13.951Z,979.67
2023-01-10T04:26:13.945Z,979.70
2023-01-10T04:27:13.928Z,979.71
2023-01-10T04:28:13.912Z,979.70
2023-01-10T04:29:13.898Z,979.72
2023-01-10T04:30:13.906Z,979.69
2023-01-10T04:31:13.922Z,979.71
2023-01-10T04:32:13.867Z,979.74
2023-01-10T04:33:13.844Z,979.73
2023-01-10T04:34:13.844Z,979.76
2023-01-10T04:35:13.830Z,979.85
2023-01-10T04:36:13.809Z,979.83
2023-01-10T04:37:13.793Z,979.91
2023-01-10T04:38:13.780Z,979.95
2023-01-10T04:39:13.762Z,979.95
2023-01-10T04:40:13.749Z,979.96
2023-01-10T04:41:13.748Z,979.95
2023-01-10T04:42:13.734Z,980.02
2023-01-10T04:43:13.721Z,980.02
2023-01-10T04:44:13.697Z,980.03
2023-01-10T04:45:13.685Z,980.00
2023-01-10T04:46:13.700Z,980.03
2023-01-10T04:47:13.667Z,979.99
2023-01-10T04:48:13.641Z,980.03
2023-01-10T04:49:13.653Z,980.06
2023-01-10T04:50:13.616Z,980.02
2023-01-10T04:51:13.613Z,980.06
2023-01-10T04:52:13.597Z,980.08
2023-01-10T04:53:13.574Z,980.07
2023-01-10T04:54:13.575Z,980.07
2023-01-10T04:55:13.554Z,980.13
2023-01-10T04:56:13.533Z,980.11
2023-01-10T04:57:13.533Z,980.14
2023-01-10T04:58:13.510Z,980.05
2023-01-10T04:59:13.501Z,980.06
2023-01-10T05:00:13.489Z,980.09
2023-01-10T05:01:13.515Z,980.05
2023-01-10T05:02:13.598Z,980.02
2023-01-10T05:03:13.556Z,980.09
2023-01-10T05:04:13.436Z,980.08
2023-01-10T05:05:13.418Z,980.05
2023-01-10T05:06:13.411Z,980.05
2023-01-10T05:07:13.391Z,980.12
2023-01-10T05:08:13.383Z,980.15
2023-01-10T05:09:13.380Z,980.16
2023-01-10T05:10:13.366Z,980.19
2023-01-10T05:11:13.335Z,980.19
2023-01-10T05:12:13.329Z,980.27
2023-01-10T05:13:13.316Z,980.25
2023-01-10T05:14:13.293Z,980.25
2023-01-10T05:15:13.291Z,980.26
2023-01-10T05:16:13.279Z,980.25
2023-01-10T05:17:13.273Z,980.30
2023-01-10T05:18:13.267Z,980.42
2023-01-10T05:19:13.236Z,980.50
2023-01-10T05:20:13.216Z,980.47
2023-01-10T05:21:13.217Z,980.55
2023-01-10T05:22:13.208Z,980.57
2023-01-10T05:23:13.182Z,980.55
2023-01-10T05:24:13.166Z,980.56
2023-01-10T05:25:13.154Z,980.57
2023-01-10T05:26:13.140Z,980.58
2023-01-10T05:27:13.131Z,980.58
2023-01-10T05:28:13.112Z,980.58
2023-01-10T05:29:13.102Z,980.55
2023-01-10T05:30:13.083Z,980.63
2023-01-10T05:31:13.076Z,980.73
2023-01-10T05:32:13.056Z,980.68
2023-01-10T05:33:13.049Z,980.72
2023-01-10T05:34:13.057Z,980.66
2023-01-10T05:35:13.023Z,980.76
2023-01-10T05:36:13.012Z,980.72
2023-01-10T05:37:12.998Z,980.77
2023-01-10T05:38:12.977Z,980.76
2023-01-10T05:39:12.968Z,980.80
2023-01-10T05:40:12.952Z,980.69
2023-01-10T05:41:12.964Z,980.72
2023-01-10T05:42:12.936Z,980.74
2023-01-10T05:43:12.923Z,980.79
2023-01-10T05:44:14.775Z,980.83
2023-01-10T05:45:12.881Z,980.75
2023-01-10T05:46:12.927Z,980.83
2023-01-10T05:47:12.864Z,980.83
2023-01-10T05:48:12.850Z,980.80
2023-01-10T05:49:12.829Z,980.88
2023-01-10T05:50:12.854Z,980.85
2023-01-10T05:51:12.803Z,980.96
2023-01-10T05:52:12.793Z,980.96
2023-01-10T05:53:12.785Z,981.02
2023-01-10T05:54:12.771Z,981.01
2023-01-10T05:55:12.751Z,981.03
2023-01-10T05:56:12.731Z,981.11
2023-01-10T05:57:12.722Z,981.04
2023-01-10T05:58:12.708Z,981.06
2023-01-10T05:59:27.281Z,981.13
2023-01-10T06:00:13.718Z,981.11
2023-01-10T06:01:12.772Z,981.08
2023-01-10T06:02:12.797Z,981.17
2023-01-10T06:03:12.761Z,981.11
2023-01-10T06:04:12.639Z,981.19
2023-01-10T06:05:12.622Z,981.17
2023-01-10T06:06:12.629Z,981.19
2023-01-10T06:07:12.592Z,981.16
2023-01-10T06:08:12.576Z,981.11
2023-01-10T06:09:12.568Z,981.10
2023-01-10T06:10:12.550Z,981.13
2023-01-10T06:11:12.539Z,981.29
2023-01-10T06:12:12.519Z,981.13
2023-01-10T06:13:12.511Z,981.20
2023-01-10T06:14:12.506Z,981.21
2023-01-10T06:15:12.490Z,981.25
2023-01-10T06:16:12.548Z,981.22
2023-01-10T06:17:12.463Z,981.24
2023-01-10T06:18:12.736Z,981.25
2023-01-10T06:19:12.432Z,981.24
2023-01-10T06:20:12.432Z,981.23
2023-01-10T06:21:12.404Z,981.30
2023-01-10T06:22:12.414Z,981.29
2023-01-10T06:23:12.402Z,981.28
2023-01-10T06:24:12.365Z,981.29
2023-01-10T06:25:12.351Z,981.25
2023-01-10T06:26:12.337Z,981.27
2023-01-10T06:27:12.343Z,981.35
2023-01-10T06:28:12.319Z,981.36
2023-01-10T06:29:12.302Z,981.39
2023-01-10T06:30:12.308Z,981.32
2023-01-10T06:31:12.310Z,981.39
2023-01-10T06:32:12.267Z,981.45
2023-01-10T06:33:12.326Z,981.40
2023-01-10T06:34:12.244Z,981.47
2023-01-10T06:35:12.225Z,981.50
2023-01-10T06:36:12.226Z,981.54
2023-01-10T06:37:12.206Z,981.51
2023-01-10T06:38:12.199Z,981.50
2023-01-10T06:39:12.170Z,981.51
2023-01-10T06:40:12.169Z,981.56
2023-01-10T06:41:12.139Z,981.52
2023-01-10T06:42:12.127Z,981.63
2023-01-10T06:43:12.111Z,981.70
2023-01-10T06:44:12.095Z,981.66
2023-01-10T06:45:12.093Z,981.64
2023-01-10T06:46:12.145Z,981.68
2023-01-10T06:47:12.057Z,981.74
2023-01-10T06:48:12.065Z,981.78
2023-01-10T06:49:12.035Z,981.79
2023-01-10T06:50:12.035Z,981.80
2023-01-10T06:51:12.018Z,981.84
2023-01-10T06:52:12.002Z,981.85
2023-01-10T06:53:11.993Z,981.79
2023-01-10T06:54:12.001Z,981.83
2023-01-10T06:55:11.959Z,982.00
2023-01-10T06:56:11.941Z,981.98
2023-01-10T06:57:11.927Z,981.97
2023-01-10T06:58:11.911Z,982.02
2023-01-10T06:59:11.898Z,982.00
2023-01-10T07:00:11.885Z,982.06
2023-01-10T07:01:12.011Z,982.09
2023-01-10T07:02:12.019Z,982.16
2023-01-10T07:03:11.853Z,982.12
2023-01-10T07:04:11.864Z,982.18
2023-01-10T07:05:11.815Z,982.15
2023-01-10T07:06:11.805Z,982.15
2023-01-10T07:07:11.792Z,982.14
2023-01-10T07:08:11.783Z,982.21
2023-01-10T07:09:11.764Z,982.11
2023-01-10T07:10:11.775Z,982.12
2023-01-10T07:11:11.750Z,982.19
2023-01-10T07:12:11.728Z,982.20
2023-01-10T07:13:11.715Z,982.22
2023-01-10T07:14:11.701Z,982.28
2023-01-10T07:15:11.699Z,982.22
2023-01-10T07:16:11.872Z,982.37
2023-01-10T07:17:11.672Z,982.33
2023-01-10T07:18:12.830Z,982.38
2023-01-10T07:19:12.219Z,982.30
2023-01-10T07:20:11.669Z,982.26
2023-01-10T07:21:11.607Z,982.41
2023-01-10T07:22:11.591Z,982.38
2023-01-10T07:23:11.580Z,982.39
2023-01-10T07:24:11.561Z,982.42
2023-01-10T07:25:11.546Z,982.43
2023-01-10T07:26:11.569Z,982.47
2023-01-10T07:27:11.537Z,982.48
2023-01-10T07:28:11.540Z,982.45
2023-01-10T07:29:11.504Z,982.42
2023-01-10T07:30:11.483Z,982.33
2023-01-10T07:31:11.523Z,982.45
2023-01-10T07:32:11.459Z,982.38
2023-01-10T07:33:11.455Z,982.36
2023-01-10T07:34:11.437Z,982.41
2023-01-10T07:35:11.426Z,982.36
2023-01-10T07:36:11.414Z,982.34
2023-01-10T07:37:11.404Z,982.42
2023-01-10T07:38:11.392Z,982.46
2023-01-10T07:39:11.370Z,982.35
2023-01-10T07:40:11.373Z,982.47
2023-01-10T07:41:11.543Z,982.49
2023-01-10T07:42:11.351Z,982.50
2023-01-10T07:43:11.314Z,982.51
2023-01-10T07:44:11.301Z,982.41
2023-01-10T07:45:11.286Z,982.46
2023-01-10T07:46:11.334Z,982.51
2023-01-10T07:47:11.257Z,982.50
2023-01-10T07:48:11.247Z,982.52
2023-01-10T07:49:11.233Z,982.53
2023-01-10T07:50:11.231Z,982.57
2023-01-10T07:51:11.202Z,982.62
2023-01-10T07:52:11.186Z,982.66
2023-01-10T07:53:11.181Z,982.64
2023-01-10T07:54:12.958Z,982.64
2023-01-10T07:55:11.162Z,982.70
2023-01-10T07:56:11.143Z,982.68
2023-01-10T07:57:11.128Z,982.70
2023-01-10T07:58:11.141Z,982.68
2023-01-10T07:59:11.115Z,982.73
2023-01-10T08:00:11.084Z,982.80
2023-01-10T08:01:11.186Z,982.85
2023-01-10T08:02:11.196Z,982.88
2023-01-10T08:03:11.266Z,982.96
2023-01-10T08:04:11.264Z,982.95
2023-01-10T08:05:11.033Z,983.02
2023-01-10T08:06:11.014Z,982.93
2023-01-10T08:07:11.007Z,982.90
2023-01-10T08:08:10.982Z,982.90
2023-01-10T08:09:10.969Z,982.97
2023-01-10T08:10:10.950Z,982.97
2023-01-10T08:11:10.934Z,982.92
2023-01-10T08:12:10.929Z,982.89
2023-01-10T08:13:18.704Z,982.96
2023-01-10T08:14:12.013Z,982.88
2023-01-10T08:15:10.890Z,982.94
2023-01-10T08:16:10.944Z,982.89
2023-01-10T08:17:10.863Z,982.87
2023-01-10T08:18:10.852Z,982.84
2023-01-10T08:19:10.843Z,982.85
2023-01-10T08:20:10.826Z,982.87
2023-01-10T08:21:10.814Z,982.98
2023-01-10T08:22:10.799Z,982.99
2023-01-10T08:23:10.795Z,983.06
2023-01-10T08:24:10.768Z,983.02
2023-01-10T08:25:10.755Z,983.05
2023-01-10T08:26:10.757Z,983.06
2023-01-10T08:27:10.728Z,983.10
2023-01-10T08:28:10.719Z,983.07
2023-01-10T08:29:10.708Z,983.19
2023-01-10T08:30:10.711Z,983.10
2023-01-10T08:31:10.708Z,983.05
2023-01-10T08:32:10.670Z,983.12
2023-01-10T08:33:10.659Z,983.12
2023-01-10T08:34:10.641Z,983.23
2023-01-10T08:35:10.630Z,983.27
2023-01-10T08:36:10.616Z,983.29
2023-01-10T08:37:10.605Z,983.40
2023-01-10T08:38:10.586Z,983.33
2023-01-10T08:39:10.586Z,983.35
2023-01-10T08:40:10.559Z,983.39
2023-01-10T08:41:10.542Z,983.36
2023-01-10T08:42:10.559Z,983.42
2023-01-10T08:43:10.560Z,983.45
2023-01-10T08:44:10.506Z,983.41
2023-01-10T08:45:10.500Z,983.39
2023-01-10T08:46:10.768Z,983.45
2023-01-10T08:47:10.464Z,983.33
2023-01-10T08:48:10.495Z,983.29
2023-01-10T08:49:10.500Z,983.26
2023-01-10T08:50:10.687Z,983.27
2023-01-10T08:51:10.418Z,983.31
2023-01-10T08:52:10.436Z,983.29
2023-01-10T08:53:10.392Z,983.40
2023-01-10T08:54:10.376Z,983.40
2023-01-10T08:55:10.371Z,983.45
2023-01-10T08:56:10.352Z,983.48
2023-01-10T08:57:10.337Z,983.52
2023-01-10T08:58:10.325Z,983.52
2023-01-10T08:59:10.306Z,983.51
2023-01-10T09:00:10.294Z,983.54
2023-01-10T09:01:10.305Z,983.56
2023-01-10T09:02:10.343Z,983.54
2023-01-10T09:03:10.312Z,983.48
2023-01-10T09:04:10.245Z,983.48
2023-01-10T09:05:22.235Z,983.46
2023-01-10T09:06:11.249Z,983.46
2023-01-10T09:07:10.205Z,983.51
2023-01-10T09:08:10.186Z,983.47
2023-01-10T09:09:10.178Z,983.48
2023-01-10T09:10:10.160Z,983.49
2023-01-10T09:11:10.161Z,983.45
2023-01-10T09:12:10.137Z,983.48
2023-01-10T09:13:10.120Z,983.50
2023-01-10T09:14:10.109Z,983.46
2023-01-10T09:15:10.092Z,983.54
2023-01-10T09:16:10.122Z,983.53
2023-01-10T09:17:10.067Z,983.56
2023-01-10T09:18:10.101Z,983.62
2023-01-10T09:19:10.039Z,983.64
2023-01-10T09:20:10.023Z,983.53
2023-01-10T09:21:10.028Z,983.56
2023-01-10T09:22:09.998Z,983.58
2023-01-10T09:23:09.991Z,983.68
2023-01-10T09:24:10.188Z,983.68
2023-01-10T09:25:09.960Z,983.73
2023-01-10T09:26:09.941Z,983.74
2023-01-10T09:27:09.929Z,983.77
2023-01-10T09:28:09.926Z,983.75
2023-01-10T09:29:09.905Z,983.77
2023-01-10T09:30:09.892Z,983.79
2023-01-10T09:31:10.013Z,983.77
2023-01-10T09:32:09.865Z,983.72
2023-01-10T09:33:09.848Z,983.80
2023-01-10T09:34:09.893Z,983.90
2023-01-10T09:35:09.836Z,983.89
2023-01-10T09:36:10.345Z,983.81
2023-01-10T09:37:09.790Z,983.81
2023-01-10T09:38:09.785Z,983.87
2023-01-10T09:39:09.761Z,983.90
2023-01-10T09:40:09.755Z,983.90
2023-01-10T09:41:09.738Z,983.80
2023-01-10T09:42:09.727Z,983.88
2023-01-10T09:43:09.713Z,983.84
2023-01-10T09:44:09.695Z,983.90
2023-01-10T09:45:09.681Z,983.90
2023-01-10T09:46:09.848Z,983.93
2023-01-10T09:47:21.496Z,984.01
2023-01-10T09:48:10.664Z,984.00
2023-01-10T09:49:09.633Z,983.96
2023-01-10T09:50:09.663Z,984.04
2023-01-10T09:51:09.996Z,984.02
2023-01-10T09:52:09.605Z,984.03
2023-01-10T09:53:09.580Z,984.02
2023-01-10T09:54:12.825Z,984.06
2023-01-10T09:55:09.568Z,984.07
2023-01-10T09:56:09.544Z,984.15
2023-01-10T09:57:09.536Z,984.14
2023-01-10T09:58:09.540Z,984.11
2023-01-10T09:59:09.512Z,984.10
2023-01-10T10:00:09.497Z,984.08
2023-01-10T10:01:09.518Z,984.04
2023-01-10T10:02:09.465Z,984.10
2023-01-10T10:03:09.465Z,983.99
2023-01-10T10:04:09.463Z,984.03
2023-01-10T10:05:09.442Z,983.98
2023-01-10T10:06:12.340Z,984.04
2023-01-10T10:07:09.391Z,984.02
2023-01-10T10:08:09.386Z,983.99
2023-01-10T10:09:09.365Z,984.00
2023-01-10T10:10:09.360Z,983.99
2023-01-10T10:11:09.340Z,983.99
2023-01-10T10:12:09.323Z,983.99
2023-01-10T10:13:11.623Z,983.93
2023-01-10T10:14:09.301Z,983.99
2023-01-10T10:15:09.284Z,984.00
2023-01-10T10:16:09.378Z,984.02
2023-01-10T10:17:09.262Z,984.01
2023-01-10T10:18:09.247Z,983.98
2023-01-10T10:19:09.235Z,984.00
2023-01-10T10:20:09.228Z,984.02
2023-01-10T10:21:09.205Z,984.09
2023-01-10T10:22:09.214Z,984.02
2023-01-10T10:23:09.187Z,983.96
2023-01-10T10:24:09.162Z,984.07
2023-01-10T10:25:09.150Z,984.03
2023-01-10T10:26:09.137Z,983.96
2023-01-10T10:27:09.132Z,983.98
2023-01-10T10:28:09.105Z,983.96
2023-01-10T10:29:09.090Z,983.95
2023-01-10T10:30:09.078Z,984.03
2023-01-10T10:31:09.144Z,984.00
2023-01-10T10:32:09.060Z,984.05
2023-01-10T10:33:09.046Z,983.95
2023-01-10T10:34:09.033Z,984.01
2023-01-10T10:35:09.014Z,983.96
2023-01-10T10:36:09.003Z,983.96
2023-01-10T10:37:08.984Z,983.89
2023-01-10T10:38:08.998Z,983.91
2023-01-10T10:39:08.961Z,983.96
2023-01-10T10:40:08.945Z,984.00
2023-01-10T10:41:08.930Z,983.96
2023-01-10T10:42:08.917Z,983.98
2023-01-10T10:43:08.915Z,983.89
2023-01-10T10:44:08.895Z,983.97
2023-01-10T10:45:08.877Z,983.84
2023-01-10T10:46:08.959Z,983.81
2023-01-10T10:47:08.850Z,983.80
2023-01-10T10:48:08.844Z,983.77
2023-01-10T10:49:08.826Z,983.73
2023-01-10T10:50:08.825Z,983.84
2023-01-10T10:51:08.816Z,983.75
2023-01-10T10:52:08.792Z,983.72
2023-01-10T10:53:08.785Z,983.80
2023-01-10T10:54:08.781Z,983.92
2023-01-10T10:55:08.751Z,983.89
2023-01-10T10:56:08.739Z,983.83
2023-01-10T10:57:08.721Z,983.79
2023-01-10T10:58:08.713Z,983.73
2023-01-10T10:59:08.701Z,983.80
2023-01-10T11:00:08.689Z,983.78
2023-01-10T11:01:08.830Z,983.67
2023-01-10T11:02:08.693Z,983.75
2023-01-10T11:03:08.643Z,983.72
2023-01-10T11:04:08.633Z,983.82
2023-01-10T11:05:08.729Z,983.78
2023-01-10T11:06:08.608Z,983.71
2023-01-10T11:07:08.583Z,983.73
2023-01-10T11:08:08.587Z,983.75
2023-01-10T11:09:08.553Z,983.72
2023-01-10T11:10:08.599Z,983.74
2023-01-10T11:11:08.532Z,983.86
2023-01-10T11:12:08.529Z,983.83
2023-01-10T11:13:08.502Z,983.86
2023-01-10T11:14:08.503Z,983.77
2023-01-10T11:15:08.474Z,983.94
2023-01-10T11:16:08.485Z,983.99
2023-01-10T11:17:08.449Z,983.88
2023-01-10T11:18:08.459Z,983.88
2023-01-10T11:19:08.431Z,983.85
2023-01-10T11:20:08.415Z,984.00
2023-01-10T11:21:08.399Z,984.05
2023-01-10T11:22:08.391Z,983.93
2023-01-10T11:23:08.368Z,983.96
2023-01-10T11:24:08.363Z,983.94
2023-01-10T11:25:08.348Z,983.93
2023-01-10T11:26:08.358Z,983.92
2023-01-10T11:27:08.319Z,983.86
2023-01-10T11:28:11.043Z,983.99
2023-01-10T11:29:08.325Z,983.93
2023-01-10T11:30:08.288Z,983.87
2023-01-10T11:31:08.268Z,983.89
2023-01-10T11:32:08.251Z,983.84
2023-01-10T11:33:08.253Z,983.86
2023-01-10T11:34:08.221Z,983.81
2023-01-10T11:35:08.217Z,983.84
2023-01-10T11:36:08.210Z,983.76
2023-01-10T11:37:08.186Z,983.69
2023-01-10T11:38:08.174Z,983.72
2023-01-10T11:39:08.154Z,983.64
2023-01-10T11:40:08.145Z,983.69
2023-01-10T11:41:08.145Z,983.73
2023-01-10T11:42:08.143Z,983.76
2023-01-10T11:43:08.100Z,983.80
2023-01-10T11:44:08.099Z,983.84
2023-01-10T11:45:08.080Z,983.81
2023-01-10T11:46:08.111Z,983.78
2023-01-10T11:47:08.049Z,983.79
2023-01-10T11:48:08.037Z,983.79
2023-01-10T11:49:08.921Z,983.81
2023-01-10T11:50:08.013Z,983.78
2023-01-10T11:51:08.002Z,983.77
2023-01-10T11:52:07.994Z,983.74
2023-01-10T11:53:07.971Z,983.78
2023-01-10T11:54:07.975Z,983.78
2023-01-10T11:55:08.391Z,983.73
2023-01-10T11:56:07.934Z,983.79
2023-01-10T11:57:07.926Z,983.80
2023-01-10T11:58:07.933Z,983.70
2023-01-10T11:59:07.889Z,983.66
2023-01-10T12:00:07.893Z,983.65
2023-01-10T12:01:07.882Z,983.70
2023-01-10T12:02:07.884Z,983.68
2023-01-10T12:03:07.831Z,983.74
2023-01-10T12:04:07.832Z,983.74
2023-01-10T12:05:07.829Z,983.67
2023-01-10T12:06:07.799Z,983.70
2023-01-10T12:07:09.296Z,983.66
2023-01-10T12:08:07.783Z,983.67
2023-01-10T12:09:07.758Z,983.73
2023-01-10T12:10:07.740Z,983.83
2023-01-10T12:11:07.735Z,983.75
2023-01-10T12:12:07.719Z,983.59
2023-01-10T12:13:07.707Z,983.51
2023-01-10T12:14:07.709Z,983.40
2023-01-10T12:15:07.678Z,983.23
2023-01-10T12:16:07.668Z,983.41
2023-01-10T12:17:07.764Z,983.43
2023-01-10T12:18:07.630Z,983.48
2023-01-10T12:19:07.638Z,983.37
2023-01-10T12:20:07.617Z,983.31
2023-01-10T12:21:07.597Z,983.22
2023-01-10T12:22:07.599Z,983.17
2023-01-10T12:23:07.567Z,983.05
2023-01-10T12:24:07.566Z,983.14
2023-01-10T12:25:07.546Z,983.10
2023-01-10T12:26:12.276Z,983.01
2023-01-10T12:27:07.520Z,982.97
2023-01-10T12:28:07.503Z,982.88
2023-01-10T12:29:07.496Z,982.80